Pagina principale
METAR-TAF:

METAR-TAF

Aeroporti :

Aeroporto di Milano-Malpensa

Milano, Italia

latitudine: 45-37N, longitudine: 008-44E, altezza: 234 m

Osservazione

Il bollettino è stato emesso 13 minuti fa, alle 02:50 UTC
Vento 5 kt da nord/nord-est
Temperature 0°C
Umidità 93%
Pressione 1025 hPa
Visibilità: 7000 m
Nubi sparse ad un'altezza di 5000 ft

METAR: LIMC 250250Z 02005KT 7000 SCT050 M00/M01 Q1025 NOSIG

Ora: 04:03 (03:03 UTC)

Previsione

Il bollettino è stato emesso 4 ore e 3 minuti fa, alle 23:00 UTC
Previsione valida dal 25 alle 00 UTC al 26 alle 06 UTC
Vento 5 kt da direzioni variabili
Visibilità 10 km o più
Nubi sparse ad un'altezza di 2500 ft
Nubi sparse ad un'altezza di 6000 ft
Probabilità 30% :
Temporaneamente
dal 25 alle 00 UTC al 25 alle 06 UTC
Nuvoloso ad un'altezza di 1200 ft
Nuvoloso ad un'altezza di 4000 ft
pioggia

TAF: LIMC 242300Z 2500/2606 VRB05KT 9999 SCT025 SCT060 PROB30 TEMPO 2500/2506 RA BKN012 BKN040

Osservazioni e previsioni meteorologiche di più di 4000 aeroporti (messaggi METAR e TAF).

Le stazioni disponibili sono rappresentate dai dischi gialli e rossi sulla carta.

Puntare il mouse per vedere il nome della stazione.

Clicca sopra per visualizzare le osservazioni e previsioni meteorologiche.

Per cambiare la mappa : fare clic sui pulsanti verdi con una croce nera per ingrandire, il pulsante verde con un trattino per diminuire, o sulla freccia verde per le mappe adiacenti.


METAR-TAF: